Time;durP1;ratioP1;P1;durP2;ratioP2;P2;SDS_P1;SDS_P2;PMS_P1;PMS_P2;Temp;Humidity;BMP_temperature;BMP_pressure;BME280_temperature;BME280_humidity;BME280_pressure;Samples;Min_cycle;Max_cycle;Signal;HPM_P1;HPM_P2
2021/12/18 00:00:11;;;;;;;10.60;5.30;;;;;;;1.99;80.69;101503.99;106646;1271;59766;-88
2021/12/18 00:03:04;;;;;;;11.20;5.50;;;;;;;1.91;81.02;101505.58;107193;1269;72060;-89
2021/12/18 00:05:34;;;;;;;10.90;6.20;;;;;;;1.95;80.84;101506.67;106321;1271;72175;-89
2021/12/18 00:08:04;;;;;;;9.30;5.60;;;;;;;1.91;81.33;101510.57;106688;1268;71789;-90
2021/12/18 00:10:33;;;;;;;10.50;5.80;;;;;;;1.96;81.45;101510.78;106784;1269;72468;-75
2021/12/18 00:13:03;;;;;;;11.50;5.40;;;;;;;1.96;81.33;101515.42;107079;1268;60371;-92
2021/12/18 00:15:32;;;;;;;10.10;6.00;;;;;;;1.92;81.30;101519.14;107829;1269;58953;-92
2021/12/18 00:18:01;;;;;;;9.60;5.20;;;;;;;1.92;81.71;101519.64;106757;1272;70175;-91
2021/12/18 00:20:30;;;;;;;9.40;5.60;;;;;;;1.89;81.62;101526.77;106510;1272;70788;-92
2021/12/18 00:22:59;;;;;;;8.90;5.50;;;;;;;1.91;81.55;101524.65;106772;1272;67985;-91
2021/12/18 00:25:28;;;;;;;9.60;5.40;;;;;;;1.85;81.74;101526.86;107173;1272;73922;-92
2021/12/18 00:27:58;;;;;;;7.90;4.20;;;;;;;1.78;81.91;101533.19;107840;1271;58708;-92
2021/12/18 00:30:27;;;;;;;10.20;5.90;;;;;;;1.76;81.80;101536.84;106859;1272;58898;-93
2021/12/18 00:32:56;;;;;;;6.80;4.20;;;;;;;1.72;81.89;101535.73;106609;1271;70389;-93
2021/12/18 00:35:26;;;;;;;10.00;5.70;;;;;;;1.76;81.63;101535.63;106826;1269;69615;-93
2021/12/18 00:37:54;;;;;;;7.90;4.50;;;;;;;1.78;81.61;101536.63;106844;1269;71596;-92
2021/12/18 00:40:26;;;;;;;7.00;4.30;;;;;;;1.71;81.57;101537.45;106767;1269;74695;-93
2021/12/18 00:43:01;;;;;;;8.20;5.10;;;;;;;1.68;81.74;101534.96;106671;1269;61990;-92
2021/12/18 00:45:30;;;;;;;8.70;4.20;;;;;;;1.68;81.55;101534.79;106608;1269;59451;-92
2021/12/18 00:47:59;;;;;;;8.30;4.40;;;;;;;1.73;81.31;101532.78;106446;1269;70920;-93
2021/12/18 00:50:31;;;;;;;7.80;4.60;;;;;;;1.70;81.36;101531.33;106665;1269;69882;-94
2021/12/18 00:53:00;;;;;;;5.30;3.70;;;;;;;1.69;81.67;101531.17;106625;1272;71107;-90
2021/12/18 00:55:29;;;;;;;5.70;3.30;;;;;;;1.63;81.69;101531.11;106709;1268;72882;-92
2021/12/18 00:57:58;;;;;;;7.30;4.40;;;;;;;1.64;81.60;101540.04;106802;1269;60854;-92
2021/12/18 01:00:28;;;;;;;8.20;4.60;;;;;;;1.59;81.46;101540.98;106337;1271;61971;-92
2021/12/18 01:03:00;;;;;;;8.40;4.00;;;;;;;1.55;81.81;101541.94;106490;1269;70879;-91
2021/12/18 01:05:31;;;;;;;8.10;4.20;;;;;;;1.57;81.41;101551.01;106704;1269;71585;-91
2021/12/18 01:08:01;;;;;;;7.20;4.30;;;;;;;1.57;81.63;101549.63;106999;1268;70801;-92
2021/12/18 01:16:26;;;;;;;6.20;3.80;;;;;;;1.54;81.82;101555.69;106574;1271;61418;-91
2021/12/18 01:24:31;;;;;;;7.50;3.60;;;;;;;1.59;81.88;101558.36;107120;1269;70592;-92
2021/12/18 01:27:00;;;;;;;6.50;3.90;;;;;;;1.60;81.81;101560.39;106781;1269;74046;-92
2021/12/18 01:29:29;;;;;;;5.90;3.30;;;;;;;1.61;81.45;101559.84;106668;1272;58929;-92
2021/12/18 01:31:58;;;;;;;6.90;3.60;;;;;;;1.65;81.12;101561.66;106594;1268;60016;-91
2021/12/18 01:34:27;;;;;;;7.10;3.30;;;;;;;1.66;81.31;101557.33;106341;1269;74661;-90
2021/12/18 01:36:56;;;;;;;6.30;3.50;;;;;;;1.67;81.27;101562.45;106334;1269;70719;-91
2021/12/18 01:39:25;;;;;;;6.30;3.50;;;;;;;1.71;80.99;101561.69;106726;1272;68291;-90
2021/12/18 01:42:23;;;;;;;4.90;3.00;;;;;;;1.64;80.85;101563.21;107782;1268;73376;-90
2021/12/18 01:45:13;;;;;;;5.20;3.30;;;;;;;1.62;80.74;101563.42;106503;1269;61816;-88
2021/12/18 01:53:19;;;;;;;7.00;3.20;;;;;;;1.65;80.62;101565.77;107221;1271;70352;-90
2021/12/18 01:55:50;;;;;;;4.00;2.50;;;;;;;1.72;80.43;101568.36;106744;1272;69845;-89
2021/12/18 01:58:23;;;;;;;4.70;2.70;;;;;;;1.77;80.35;101566.19;106497;1271;71615;-89
2021/12/18 02:00:57;;;;;;;4.30;3.10;;;;;;;1.72;79.75;101574.52;106340;1271;58934;-89
2021/12/18 02:03:26;;;;;;;5.50;3.10;;;;;;;1.62;80.02;101574.40;106300;1269;60321;-89
2021/12/18 02:05:55;;;;;;;3.60;2.60;;;;;;;1.73;80.06;101577.10;106261;1269;72935;-88
2021/12/18 02:08:26;;;;;;;4.70;3.00;;;;;;;1.76;80.28;101577.73;106245;1272;70136;-89
2021/12/18 02:11:43;;;;;;;;;;;;;;;;;;;;;
2021/12/18 02:14:35;;;;;;;6.60;2.70;;;;;;;1.77;79.64;101576.33;106273;1271;73416;-91
2021/12/18 02:20:10;;;;;;;4.80;2.90;;;;;;;1.76;80.02;101580.98;106257;1272;59623;-89
2021/12/18 02:22:39;;;;;;;3.00;2.00;;;;;;;1.69;80.33;101586.98;107991;1269;73307;-87
2021/12/18 02:25:08;;;;;;;4.70;2.80;;;;;;;1.68;80.86;101584.25;107826;1269;71519;-92
2021/12/18 02:27:37;;;;;;;6.20;2.80;;;;;;;1.69;80.75;101586.28;107501;1272;68440;-82
2021/12/18 02:30:11;;;;;;;6.70;3.10;;;;;;;1.66;80.79;101586.36;107393;1269;72303;-88
2021/12/18 02:32:40;;;;;;;6.80;3.10;;;;;;;1.70;80.88;101584.89;106384;1269;59822;-88
2021/12/18 02:35:10;;;;;;;4.80;2.70;;;;;;;1.73;80.80;101587.40;106154;1269;59161;-88
2021/12/18 02:37:42;;;;;;;4.70;2.60;;;;;;;1.72;81.20;101587.77;106047;1272;72039;-89
2021/12/18 02:42:59;;;;;;;4.50;2.90;;;;;;;1.69;81.40;101590.08;106226;1269;69795;-88
2021/12/18 02:45:28;;;;;;;4.80;2.40;;;;;;;1.71;81.59;101590.55;106138;1272;74756;-90
2021/12/18 02:47:58;;;;;;;3.60;2.70;;;;;;;1.74;81.13;101599.23;106125;1272;58600;-88
2021/12/18 02:50:27;;;;;;;5.10;2.80;;;;;;;1.66;81.29;101603.17;106096;1272;58937;-87
2021/12/18 02:52:56;;;;;;;4.00;3.00;;;;;;;1.67;81.22;101604.70;106135;1269;71239;-85
2021/12/18 02:55:25;;;;;;;6.40;3.00;;;;;;;1.52;81.52;101613.08;106560;1272;70936;-89
2021/12/18 02:57:54;;;;;;;3.20;2.30;;;;;;;1.50;81.79;101611.06;106342;1272;69093;-91
2021/12/18 03:00:25;;;;;;;4.90;2.80;;;;;;;1.36;81.98;101612.02;106026;1269;72054;-87
2021/12/18 03:02:54;;;;;;;5.40;2.90;;;;;;;1.18;82.98;101613.08;105988;1268;60577;-86
2021/12/18 03:05:34;;;;;;;5.00;3.10;;;;;;;1.12;83.42;101620.75;105912;1272;60537;-87
2021/12/18 03:08:12;;;;;;;4.20;2.80;;;;;;;1.07;83.90;101623.57;106029;1269;72811;-87
2021/12/18 03:25:26;;;;;;;6.00;3.60;;;;;;;0.97;84.59;101633.71;106196;1269;75205;-84
2021/12/18 03:27:58;;;;;;;3.80;2.40;;;;;;;0.98;84.77;101635.40;106156;1268;72315;-87
2021/12/18 03:30:28;;;;;;;5.40;3.30;;;;;;;0.99;84.36;101639.86;106008;1272;71122;-88
2021/12/18 03:32:58;;;;;;;3.50;2.40;;;;;;;0.90;84.57;101643.96;106222;1271;73941;-85
2021/12/18 03:35:27;;;;;;;6.00;3.20;;;;;;;0.96;84.62;101643.33;106909;1272;60353;-85
2021/12/18 03:37:56;;;;;;;4.40;2.50;;;;;;;0.97;84.89;101647.25;106010;1271;59759;-85
2021/12/18 03:40:26;;;;;;;6.00;3.50;;;;;;;0.99;84.87;101643.61;106155;1269;72835;-84
2021/12/18 03:42:55;;;;;;;5.90;3.20;;;;;;;1.08;85.02;101648.79;106082;1268;71631;-85
2021/12/18 03:45:24;;;;;;;5.80;3.00;;;;;;;1.12;84.51;101650.08;106020;1269;70473;-83
2021/12/18 03:47:53;;;;;;;5.00;3.10;;;;;;;1.10;84.11;101653.04;105976;1269;73882;-84
2021/12/18 03:50:22;;;;;;;6.10;3.40;;;;;;;1.15;84.44;101654.15;105970;1269;58972;-85
2021/12/18 03:52:51;;;;;;;7.00;3.60;;;;;;;1.16;84.39;101655.86;105905;1269;60744;-83
2021/12/18 03:55:20;;;;;;;4.20;3.20;;;;;;;1.17;84.26;101663.21;105918;1268;71226;-83
2021/12/18 03:57:49;;;;;;;6.20;3.00;;;;;;;1.22;84.01;101661.55;105861;1272;70041;-85
2021/12/18 04:00:18;;;;;;;6.60;3.60;;;;;;;1.20;83.98;101663.13;105983;1269;69053;-84
2021/12/18 04:02:47;;;;;;;5.30;3.20;;;;;;;1.24;84.10;101668.90;106117;1269;72054;-85
2021/12/18 04:05:16;;;;;;;4.90;3.20;;;;;;;1.27;83.99;101667.31;106088;1272;59200;-84
2021/12/18 04:07:49;;;;;;;5.80;3.60;;;;;;;1.20;83.48;101673.60;106243;1269;60167;-85
2021/12/18 04:10:18;;;;;;;5.80;3.30;;;;;;;1.24;83.78;101674.21;106179;1269;73580;-83
2021/12/18 04:12:48;;;;;;;7.10;3.40;;;;;;;1.24;83.30;101679.55;106197;1269;69985;-84
2021/12/18 04:15:17;;;;;;;5.70;2.90;;;;;;;1.20;82.90;101683.55;106203;1269;70923;-85
2021/12/18 04:17:46;;;;;;;5.50;3.20;;;;;;;1.28;82.64;101688.40;106209;1269;73261;-86
2021/12/18 04:20:16;;;;;;;5.80;3.20;;;;;;;1.31;82.74;101692.80;106221;1269;59981;-84
2021/12/18 04:22:45;;;;;;;4.80;3.00;;;;;;;1.37;82.94;101697.34;106067;1269;59685;-86
2021/12/18 04:25:14;;;;;;;4.80;3.10;;;;;;;1.39;82.79;101698.66;106302;1269;74092;-80
2021/12/18 04:27:43;;;;;;;5.90;3.00;;;;;;;1.40;82.34;101702.59;106079;1269;71899;-84
2021/12/18 04:30:12;;;;;;;6.60;3.40;;;;;;;1.37;82.61;101709.51;106198;1269;70596;-85
2021/12/18 04:32:41;;;;;;;5.10;3.10;;;;;;;1.41;82.62;101717.85;106143;1268;74237;-85
2021/12/18 04:35:10;;;;;;;5.90;3.10;;;;;;;1.43;82.30;101721.42;105781;1274;62142;-86
2021/12/18 04:37:39;;;;;;;4.10;3.00;;;;;;;1.45;83.07;101721.02;106300;1268;61202;-84
2021/12/18 04:40:10;;;;;;;5.80;3.50;;;;;;;1.37;82.00;101723.08;106477;1269;74035;-86
2021/12/18 04:42:39;;;;;;;6.00;3.10;;;;;;;1.41;82.74;101727.11;106496;1268;71063;-85
2021/12/18 04:45:08;;;;;;;6.40;2.90;;;;;;;1.40;82.19;101730.91;106402;1269;70220;-85
2021/12/18 04:47:37;;;;;;;5.40;3.40;;;;;;;1.39;82.52;101729.56;106122;1272;75447;-84
2021/12/18 04:50:07;;;;;;;4.90;3.00;;;;;;;1.40;82.56;101730.06;106775;1272;61413;-87
2021/12/18 04:52:36;;;;;;;5.50;3.40;;;;;;;1.43;81.93;101731.73;106374;1269;60997;-77
2021/12/18 04:55:10;;;;;;;5.70;3.40;;;;;;;1.38;82.23;101739.70;106352;1269;71715;-87
2021/12/18 04:57:39;;;;;;;5.10;2.70;;;;;;;1.35;82.04;101737.52;106175;1270;70723;-85
2021/12/18 05:00:11;;;;;;;4.80;2.90;;;;;;;1.33;81.95;101732.41;106152;1270;68721;-86
2021/12/18 05:02:43;;;;;;;5.80;3.90;;;;;;;1.40;82.09;101739.66;106407;1271;72026;-86
2021/12/18 05:05:14;;;;;;;5.30;3.00;;;;;;;1.39;81.73;101743.98;106322;1269;60050;-87
2021/12/18 05:07:43;;;;;;;5.50;3.10;;;;;;;1.44;81.88;101748.17;105878;1269;541610;-87
2021/12/18 05:10:13;;;;;;;3.90;2.70;;;;;;;1.42;81.63;101753.02;106056;1269;71414;-91
2021/12/18 05:12:42;;;;;;;4.70;3.30;;;;;;;1.45;81.43;101754.66;106155;1269;72146;-86
2021/12/18 05:15:11;;;;;;;9.30;3.60;;;;;;;1.37;81.22;101761.16;106288;1269;71080;-86
2021/12/18 05:17:40;;;;;;;4.30;2.90;;;;;;;1.41;81.59;101765.92;106222;1269;73995;-86
2021/12/18 05:20:09;;;;;;;5.10;2.90;;;;;;;1.41;81.14;101769.52;106536;1269;59972;-86
2021/12/18 05:22:38;;;;;;;3.20;2.10;;;;;;;1.35;80.34;101775.97;106584;1269;61332;-87
2021/12/18 05:25:08;;;;;;;4.60;2.40;;;;;;;1.30;80.37;101772.98;106718;1272;70380;-86
2021/12/18 05:27:37;;;;;;;3.90;2.30;;;;;;;1.24;80.65;101777.54;106978;1272;69915;-82
2021/12/18 05:30:09;;;;;;;4.90;2.00;;;;;;;1.22;80.58;101783.58;106120;1274;68740;-86
2021/12/18 05:32:38;;;;;;;2.10;1.40;;;;;;;1.17;80.83;101781.59;106229;1269;75123;-88
2021/12/18 05:35:08;;;;;;;2.90;1.60;;;;;;;1.20;81.20;101786.19;106117;1272;62619;-87
2021/12/18 05:37:54;;;;;;;3.10;1.80;;;;;;;1.11;81.13;101786.16;106185;1271;61181;-82
2021/12/18 05:40:24;;;;;;;2.80;1.70;;;;;;;1.06;81.52;101788.80;106235;1269;73502;-90
2021/12/18 05:42:53;;;;;;;2.70;1.60;;;;;;;1.01;81.33;101791.46;106005;1272;72692;-89
2021/12/18 05:45:22;;;;;;;3.40;1.70;;;;;;;1.02;81.67;101790.91;106151;1271;69352;-89
2021/12/18 05:47:51;;;;;;;4.30;1.60;;;;;;;1.08;82.15;101797.35;106408;1269;71186;-86
2021/12/18 05:50:21;;;;;;;4.20;2.00;;;;;;;1.10;82.35;101802.98;106108;1268;59704;-88
2021/12/18 05:52:50;;;;;;;2.80;1.90;;;;;;;1.06;82.18;101805.27;105905;1272;60281;-86
2021/12/18 05:55:20;;;;;;;5.00;3.20;;;;;;;0.97;81.78;101813.13;106155;1269;73788;-81
2021/12/18 05:57:49;;;;;;;7.40;3.20;;;;;;;0.96;82.37;101811.44;106089;1269;70012;-86
2021/12/18 06:00:19;;;;;;;4.70;2.80;;;;;;;1.07;83.03;101811.42;106031;1272;69747;-87
2021/12/18 06:02:48;;;;;;;7.50;3.60;;;;;;;1.10;82.99;101812.09;106193;1272;71994;-87
2021/12/18 06:05:17;;;;;;;5.10;3.40;;;;;;;1.09;83.07;101821.02;106007;1271;59725;-88
2021/12/18 06:07:55;;;;;;;5.40;2.70;;;;;;;1.13;83.55;101821.48;106105;1272;59222;-88
2021/12/18 06:10:28;;;;;;;4.90;3.10;;;;;;;1.12;83.13;101828.01;106220;1269;72063;-90
2021/12/18 06:12:59;;;;;;;5.70;3.10;;;;;;;1.10;82.23;101831.64;106078;1271;72337;-88
2021/12/18 06:15:28;;;;;;;6.20;3.10;;;;;;;1.17;82.22;101838.91;106101;1269;70912;-89
2021/12/18 06:17:58;;;;;;;7.30;4.30;;;;;;;1.20;82.62;101839.03;105979;1272;73545;-88
2021/12/18 06:20:28;;;;;;;5.30;3.60;;;;;;;1.20;81.95;101842.64;106046;1271;62367;-88
2021/12/18 06:22:58;;;;;;;6.10;3.30;;;;;;;1.22;82.32;101853.42;106064;1272;60141;-87
2021/12/18 06:25:27;;;;;;;5.00;3.20;;;;;;;1.20;82.20;101855.51;106259;1269;72752;-88
2021/12/18 06:27:55;;;;;;;5.70;3.30;;;;;;;1.17;82.20;101857.96;106972;1272;72362;-90
2021/12/18 06:30:25;;;;;;;5.20;2.60;;;;;;;1.20;83.42;101857.56;107324;1270;70736;-89
2021/12/18 06:32:55;;;;;;;5.40;2.60;;;;;;;1.18;83.71;101857.42;107818;1269;71912;-87
2021/12/18 06:35:25;;;;;;;5.20;2.30;;;;;;;1.19;84.09;101858.45;107683;1272;58760;-89
2021/12/18 06:37:54;;;;;;;4.00;2.30;;;;;;;1.16;83.75;101866.55;106852;1269;58955;-88
2021/12/18 06:40:23;;;;;;;4.00;2.60;;;;;;;1.19;84.44;101870.97;106154;1272;72066;-90
2021/12/18 06:42:52;;;;;;;4.60;2.50;;;;;;;1.20;85.37;101872.34;106041;1272;71524;-88
2021/12/18 06:45:24;;;;;;;3.70;2.40;;;;;;;1.14;83.28;101875.50;106015;1272;69242;-90
2021/12/18 06:47:53;;;;;;;5.30;3.10;;;;;;;1.17;83.11;101879.59;106095;1269;71006;-88
2021/12/18 06:50:23;;;;;;;5.30;3.20;;;;;;;1.23;83.90;101885.48;106575;1271;62633;-88
2021/12/18 06:52:52;;;;;;;4.00;2.90;;;;;;;1.22;84.20;101886.89;106576;1272;60867;-89
2021/12/18 06:55:21;;;;;;;6.10;3.30;;;;;;;1.28;85.54;101889.52;106178;1269;73315;-89
2021/12/18 06:57:50;;;;;;;8.40;4.50;;;;;;;1.30;85.58;101891.05;106160;1269;72025;-89
2021/12/18 07:00:20;;;;;;;8.80;4.70;;;;;;;1.34;85.97;101891.66;106221;1271;70201;-87
2021/12/18 07:02:49;;;;;;;8.00;5.10;;;;;;;1.38;85.14;101895.21;106058;1265;72859;-88
2021/12/18 07:05:19;;;;;;;9.90;6.10;;;;;;;1.46;85.81;101904.88;105928;1272;62872;-90
2021/12/18 07:07:50;;;;;;;12.20;6.80;;;;;;;1.46;85.03;101903.35;106186;1269;62056;-87
2021/12/18 07:10:19;;;;;;;11.60;6.60;;;;;;;1.46;83.93;101903.00;106400;1270;69849;-88
2021/12/18 07:12:48;;;;;;;12.10;6.50;;;;;;;1.48;84.00;101909.14;106274;1269;69686;-91
2021/12/18 07:15:17;;;;;;;9.90;5.50;;;;;;;1.53;84.26;101907.35;106281;1269;70422;-90
2021/12/18 07:17:46;;;;;;;12.70;6.80;;;;;;;1.61;85.01;101909.63;106164;1272;74777;-92
2021/12/18 07:20:15;;;;;;;20.80;11.60;;;;;;;1.60;84.64;101910.84;106288;1269;60463;-89
2021/12/18 07:22:44;;;;;;;12.40;6.50;;;;;;;1.65;84.88;101906.48;106143;1272;60247;-89
2021/12/18 07:25:13;;;;;;;9.90;5.60;;;;;;;1.72;84.84;101907.73;106170;1272;74627;-90
2021/12/18 07:27:43;;;;;;;11.00;6.40;;;;;;;1.70;83.12;101906.56;106413;1272;72987;-88
2021/12/18 07:30:13;;;;;;;17.10;9.70;;;;;;;1.79;84.51;101908.63;106545;1272;68344;-89
2021/12/18 07:32:42;;;;;;;10.50;6.30;;;;;;;1.81;83.64;101908.09;106665;1272;72054;-90
2021/12/18 07:35:12;;;;;;;14.40;7.10;;;;;;;1.73;80.83;101909.42;107140;1269;60687;-75
2021/12/18 07:37:42;;;;;;;10.80;5.40;;;;;;;1.84;82.54;101909.94;106127;1272;59511;-79
2021/12/18 07:40:12;;;;;;;9.40;5.40;;;;;;;1.96;83.46;101911.45;106125;1271;72769;-78
2021/12/18 07:42:43;;;;;;;7.80;4.50;;;;;;;2.03;84.12;101914.58;106227;1272;72099;-75
2021/12/18 07:45:12;;;;;;;7.40;4.90;;;;;;;2.03;82.55;101914.06;105910;1272;71368;-75
2021/12/18 07:47:41;;;;;;;11.00;5.30;;;;;;;2.00;80.45;101909.31;105876;1272;72744;-79
2021/12/18 07:50:18;;;;;;;10.40;6.20;;;;;;;2.05;81.94;101906.47;106050;1269;59824;-75
2021/12/18 07:52:47;;;;;;;10.80;6.70;;;;;;;2.07;81.97;101911.58;106017;1271;61132;-76
2021/12/18 07:55:17;;;;;;;11.80;7.10;;;;;;;2.10;83.15;101919.96;105728;1274;73606;-77
2021/12/18 07:57:46;;;;;;;10.20;6.90;;;;;;;2.03;79.30;101923.52;106227;1267;70246;-77
2021/12/18 08:00:15;;;;;;;13.70;8.20;;;;;;;2.04;79.08;101923.16;106209;1269;70556;-79
2021/12/18 08:02:44;;;;;;;12.00;6.00;;;;;;;2.13;80.56;101924.89;106129;1269;72665;-77
2021/12/18 08:05:14;;;;;;;11.90;5.90;;;;;;;2.10;80.26;101925.80;105971;1271;59004;-76
2021/12/18 08:07:43;;;;;;;10.70;5.60;;;;;;;1.97;78.77;101927.74;106060;1269;61278;-76
2021/12/18 08:10:12;;;;;;;8.10;5.10;;;;;;;2.08;81.09;101932.53;105960;1269;72395;-77
2021/12/18 08:12:41;;;;;;;5.90;3.40;;;;;;;2.04;79.91;101934.34;105947;1271;70593;-78
2021/12/18 08:15:10;;;;;;;6.80;4.40;;;;;;;2.06;81.76;101930.67;106107;1269;69353;-79
2021/12/18 08:17:39;;;;;;;5.80;3.40;;;;;;;2.03;81.05;101934.52;105665;1272;72056;-75
2021/12/18 08:20:12;;;;;;;6.60;4.60;;;;;;;1.97;80.30;101933.42;105864;1269;59815;-76
2021/12/18 08:22:41;;;;;;;6.20;3.20;;;;;;;2.11;81.66;101942.46;106057;1271;61355;-76
2021/12/18 08:25:10;;;;;;;5.30;3.50;;;;;;;2.21;82.61;101945.02;105861;1271;74853;-76
2021/12/18 08:27:39;;;;;;;6.40;4.20;;;;;;;2.26;82.65;101948.02;105733;1272;72660;-75
2021/12/18 08:30:09;;;;;;;6.40;3.60;;;;;;;2.20;79.02;101952.11;105866;1268;71223;-77
2021/12/18 08:32:40;;;;;;;6.30;3.40;;;;;;;2.30;82.06;101952.77;106033;1272;72374;-80
2021/12/18 08:35:11;;;;;;;5.30;3.40;;;;;;;2.11;79.76;101956.38;105949;1272;60648;-79
2021/12/18 08:37:42;;;;;;;;;;;;;;;2.23;81.02;101959.10;106107;1271;61593;-76
2021/12/18 08:40:12;;;;;;;6.60;3.70;;;;;;;2.18;79.67;101960.73;106124;1272;73506;-78
2021/12/18 08:42:40;;;;;;;7.30;3.90;;;;;;;2.05;78.71;101965.08;105987;1272;73200;-78
2021/12/18 08:45:09;;;;;;;4.90;3.20;;;;;;;2.11;81.05;101964.80;105987;1272;71309;-80
2021/12/18 08:47:39;;;;;;;7.30;3.90;;;;;;;2.08;80.38;101964.49;105996;1271;72021;-75
2021/12/18 08:50:10;;;;;;;4.80;3.40;;;;;;;2.03;81.26;101946.02;106138;1272;62281;-79
2021/12/18 08:52:39;;;;;;;8.80;4.70;;;;;;;2.10;81.05;101961.89;106182;1269;61734;-77
2021/12/18 08:55:08;;;;;;;8.50;5.00;;;;;;;2.08;80.92;101961.23;106057;1272;73224;-77
2021/12/18 08:57:37;;;;;;;6.80;4.00;;;;;;;1.95;79.70;101958.88;105956;1272;70555;-73
2021/12/18 09:00:09;;;;;;;9.00;4.90;;;;;;;1.77;80.01;101959.17;106072;1269;69143;-78
2021/12/18 09:02:40;;;;;;;8.60;4.60;;;;;;;1.78;80.88;101957.27;106007;1272;72003;-79
2021/12/18 09:05:09;;;;;;;8.00;4.50;;;;;;;1.72;81.14;101956.51;105990;1272;61707;-80
2021/12/18 09:07:38;;;;;;;7.10;4.90;;;;;;;1.66;80.98;101960.39;106176;1269;62106;-77
2021/12/18 09:10:07;;;;;;;7.70;5.10;;;;;;;1.63;81.48;101960.27;105977;1272;74310;-79
2021/12/18 09:12:36;;;;;;;9.20;5.40;;;;;;;1.57;81.03;101964.80;106236;1269;70481;-80
2021/12/18 09:15:16;;;;;;;7.20;4.90;;;;;;;1.58;80.08;101964.63;106089;1272;66997;-84
2021/12/18 09:17:45;;;;;;;9.10;7.00;;;;;;;1.58;79.71;101968.75;106272;1270;74846;-78
2021/12/18 09:20:15;;;;;;;5.00;2.90;;;;;;;1.52;79.63;101975.35;106123;1272;59090;-83
2021/12/18 09:22:43;;;;;;;5.40;3.10;;;;;;;1.47;80.00;101978.34;105972;1272;60709;-79
2021/12/18 09:25:15;;;;;;;7.30;4.10;;;;;;;1.35;81.29;101980.05;106082;1272;73675;-78
2021/12/18 09:27:44;;;;;;;6.20;3.10;;;;;;;1.34;81.25;101981.61;106309;1269;70995;-86
2021/12/18 09:30:14;;;;;;;5.40;2.50;;;;;;;1.36;80.56;101981.94;106324;1271;68791;-80
2021/12/18 09:32:43;;;;;;;2.80;1.80;;;;;;;1.30;79.87;101982.52;106149;1269;75231;-81
2021/12/18 09:35:12;;;;;;;4.00;2.40;;;;;;;1.41;79.71;101975.00;105895;1272;61268;-82
2021/12/18 09:37:41;;;;;;;2.80;2.10;;;;;;;1.45;79.55;101969.95;105902;1272;59704;-81
2021/12/18 09:40:11;;;;;;;4.20;2.20;;;;;;;1.47;78.70;101971.64;105905;1271;72918;-79
2021/12/18 09:42:40;;;;;;;3.30;2.40;;;;;;;1.45;77.89;101987.30;105986;1272;69044;-80
2021/12/18 09:45:10;;;;;;;3.20;2.00;;;;;;;1.47;78.41;101991.05;105785;1272;67812;-81
2021/12/18 09:47:39;;;;;;;5.40;2.70;;;;;;;1.62;78.10;101986.03;106065;1270;72528;-81
2021/12/18 09:50:10;;;;;;;4.80;2.60;;;;;;;1.71;78.61;101981.42;105755;1271;59801;-79
2021/12/18 09:52:40;;;;;;;4.60;3.20;;;;;;;1.80;78.46;101986.44;105833;1272;60527;-81
2021/12/18 09:55:09;;;;;;;4.50;2.60;;;;;;;1.82;78.71;101983.81;106541;1269;73205;-81
2021/12/18 09:57:38;;;;;;;6.20;3.10;;;;;;;1.82;78.24;101988.65;107012;1272;72329;-82
2021/12/18 10:00:17;;;;;;;5.10;3.30;;;;;;;1.84;78.31;101986.72;106083;1271;71125;-86
2021/12/18 10:02:46;;;;;;;4.50;2.70;;;;;;;1.86;77.95;101991.51;105961;1272;72007;-85
2021/12/18 10:05:23;;;;;;;6.40;2.90;;;;;;;1.80;76.76;101987.28;105768;1272;60537;-82
2021/12/18 10:08:16;;;;;;;5.60;3.40;;;;;;;1.89;78.01;101981.66;105898;1272;59735;-83
2021/12/18 10:11:08;;;;;;;5.50;3.00;;;;;;;1.91;77.84;101983.86;105721;1272;71700;-87
2021/12/18 10:13:55;;;;;;;6.00;3.10;;;;;;;1.94;77.65;101979.52;105931;1272;70480;-81
2021/12/18 10:16:27;;;;;;;5.80;3.30;;;;;;;1.90;77.00;101973.56;105893;1272;70599;-82
2021/12/18 10:18:57;;;;;;;8.70;4.10;;;;;;;1.62;76.09;101970.40;106004;1270;72658;-84
2021/12/18 10:21:29;;;;;;;7.50;3.90;;;;;;;1.73;77.35;101964.73;105979;1272;59791;-83
2021/12/18 10:24:13;;;;;;;9.80;4.00;;;;;;;1.75;78.21;101964.36;106190;1273;61386;-84
2021/12/18 10:26:45;;;;;;;7.90;4.20;;;;;;;1.84;78.79;101963.02;106013;1273;73269;-81
2021/12/18 10:29:28;;;;;;;6.70;3.80;;;;;;;1.87;78.56;101959.36;106138;1273;71140;-82
2021/12/18 10:32:08;;;;;;;4.70;3.70;;;;;;;1.91;78.32;101959.29;107657;1274;70951;-82
2021/12/18 10:34:38;;;;;;;5.70;3.20;;;;;;;1.91;78.42;101953.62;106125;1275;74440;-80
2021/12/18 10:37:21;;;;;;;7.80;4.20;;;;;;;1.94;78.92;101955.29;106303;1273;62677;-82
2021/12/18 10:39:56;;;;;;;4.70;3.50;;;;;;;1.94;77.88;101949.80;105842;1272;59357;-84
2021/12/18 10:42:42;;;;;;;4.70;2.80;;;;;;;1.97;76.34;101950.96;105995;1273;72404;-86
2021/12/18 10:45:24;;;;;;;4.60;3.00;;;;;;;1.98;74.89;101951.09;105858;1275;69638;-83
2021/12/18 10:48:04;;;;;;;5.10;3.10;;;;;;;1.94;73.98;101956.67;105779;1271;70649;-84
2021/12/18 10:50:51;;;;;;;3.00;2.10;;;;;;;1.94;74.55;101952.38;105905;1275;71593;-87
2021/12/18 10:53:25;;;;;;;3.60;2.20;;;;;;;2.01;73.28;101954.48;105970;1272;58862;-85
2021/12/18 10:55:59;;;;;;;3.90;2.20;;;;;;;1.97;73.02;101956.11;106180;1272;59013;-89
2021/12/18 10:58:35;;;;;;;5.10;3.00;;;;;;;1.98;72.98;101949.20;106116;1272;71019;-78
2021/12/18 11:01:13;;;;;;;2.90;2.00;;;;;;;1.95;73.42;101954.24;106155;1272;69647;-83
2021/12/18 11:03:50;;;;;;;3.50;1.80;;;;;;;1.95;72.68;101955.27;106110;1272;67982;-84
2021/12/18 11:06:29;;;;;;;3.60;1.90;;;;;;;1.93;72.77;101949.98;105998;1272;73998;-82
2021/12/18 11:09:12;;;;;;;3.60;2.00;;;;;;;1.86;72.75;101948.73;106101;1272;60908;-81
2021/12/18 11:14:21;;;;;;;3.00;1.90;;;;;;;1.93;72.91;101941.56;106399;1272;72340;-86
2021/12/18 11:17:01;;;;;;;3.80;2.20;;;;;;;1.89;73.52;101943.35;106089;1272;69626;-81
2021/12/18 11:19:31;;;;;;;3.20;2.20;;;;;;;1.89;74.15;101943.86;106269;1271;71629;-82
2021/12/18 11:22:12;;;;;;;4.10;2.30;;;;;;;1.92;73.79;101944.16;106041;1272;72950;-84
2021/12/18 11:25:10;;;;;;;2.60;1.80;;;;;;;1.84;73.47;101944.45;105997;1273;58783;-79
2021/12/18 11:27:40;;;;;;;3.10;1.80;;;;;;;1.83;73.31;101936.05;105822;1274;61650;-77
2021/12/18 11:30:12;;;;;;;4.00;1.80;;;;;;;1.89;73.70;101940.09;106297;1275;72286;-79
2021/12/18 11:32:44;;;;;;;6.80;2.20;;;;;;;1.94;73.29;101938.45;105902;1273;72598;-80
2021/12/18 11:35:19;;;;;;;3.10;1.90;;;;;;;1.82;73.00;101942.60;105986;1273;69501;-83
2021/12/18 11:38:04;;;;;;;4.70;1.80;;;;;;;1.90;73.59;101935.27;105991;1269;74197;-72
2021/12/18 11:40:36;;;;;;;2.40;1.50;;;;;;;1.78;73.61;101933.75;105919;1275;62644;-79
2021/12/18 11:43:28;;;;;;;3.10;1.70;;;;;;;1.76;73.58;101939.27;105871;1271;61673;-74
2021/12/18 11:45:57;;;;;;;4.90;2.40;;;;;;;1.66;73.90;101926.39;105954;1273;74310;-80
2021/12/18 11:48:25;;;;;;;3.40;1.90;;;;;;;1.86;73.96;101922.43;105724;1272;73256;-74
2021/12/18 11:50:54;;;;;;;3.60;2.00;;;;;;;1.97;73.14;101925.52;105778;1272;68693;-73
2021/12/18 11:53:32;;;;;;;3.40;2.30;;;;;;;1.98;72.84;101920.87;105687;1274;72132;-73
2021/12/18 11:56:04;;;;;;;3.00;2.00;;;;;;;1.94;72.45;101919.89;105583;1272;59004;-73
2021/12/18 11:58:34;;;;;;;3.30;2.10;;;;;;;1.99;73.83;101915.51;105608;1275;60762;-71
2021/12/18 12:01:12;;;;;;;4.40;2.30;;;;;;;2.10;73.24;101915.48;105641;1272;74061;-73
2021/12/18 12:03:52;;;;;;;4.50;2.40;;;;;;;2.15;73.16;101906.65;105624;1275;73127;-74
2021/12/18 12:06:32;;;;;;;3.10;1.70;;;;;;;2.14;72.67;101908.37;105587;1275;72450;-72
2021/12/18 12:12:06;;;;;;;3.10;1.50;;;;;;;2.24;71.63;101905.79;105455;1275;59007;-75
2021/12/18 12:14:40;;;;;;;4.10;1.40;;;;;;;2.23;71.16;101902.35;105528;1275;60206;-75
2021/12/18 12:17:16;;;;;;;2.10;1.20;;;;;;;2.30;70.62;101897.57;105413;1278;73821;-76
2021/12/18 12:19:52;;;;;;;2.90;1.40;;;;;;;2.29;69.29;101892.96;105569;1276;70962;-77
2021/12/18 12:22:48;;;;;;;2.30;1.20;;;;;;;2.23;70.45;101885.36;105673;1275;67793;-77
2021/12/18 12:25:36;;;;;;;3.30;1.50;;;;;;;2.36;70.33;101893.69;105796;1272;71494;-85
2021/12/18 12:28:15;;;;;;;2.70;1.30;;;;;;;2.32;70.00;101890.50;105830;1273;62285;-84
2021/12/18 12:30:46;;;;;;;2.10;1.50;;;;;;;2.32;69.44;101892.38;105771;1273;59601;-85